Darstellungsparameter: Aktuell verwendete Einstellungen:
Skalierung der Graphiken ... ?
xyx+y,   Skalierungsfaktor:      Skalierung: Modus: x, Faktor: 1
Darstellungszeitraum ... ?
Vom - - bis: - -   Zeitraum: 03.12.2010 - 03.12.2010
Min/Max/Avg-Anzeige ... ?
Zeige MMA aktuell
Zeige MMA Monat
Zeige MMA alles
Zeige --A aktuell
Zeige --A Monat
Zeige --A alles
Keine MMA-Anzeige
MMA:
Average (ber die Originaldaten)
MMA-Basis: 03.12.2010 - 03.12.2010
Quicknavigation für Darstellung... ?
Tage:      1T, 2T, 3T, 5T -1T -2T -3T -5T +1T +2T +3T +5T
Wochen: 1W, 2W, 3W -1W -2W -3W +1W +2W +3W
Monate: 1M, 3M, 6M -1M -3M -6M +1M +3M +6M
Jahre:    1J, 3J, 5J, 10J -1J -3J -5J -10J +1J +3J +5J +10J
Nutze für die Darstellung ... ?
Originaldaten oder Mittelwerte auf ...
Stundenbasis Tagesbasis Wochenbasis
Monatsbasis Jahresbasis      Datenbasis: Original-Daten
Darstellen als:
Statistik (Auto) Statistik J:M      Darstellung:
Zur Graphik,    zurück zur Übersicht aller Sensoren.
 
Tabellarische Datenbersicht: ?
 
Sensor: Nr:Datum:Temp:Abs-Feuchte:Windchill:Wind:
Aussen-T/F 1 03-12-2010 00:08:04 -8.5 C 2.11 g/m*3 -8.5 C 0 km/h
2 03-12-2010 00:20:04 -9.5 C 1.93 g/m*3 -9.5 C 0 km/h
3 03-12-2010 00:32:04 -10.1 C 1.82 g/m*3 -10.1 C 0 km/h
4 03-12-2010 00:44:04 -10.7 C 1.72 g/m*3 -10.7 C 0 km/h
5 03-12-2010 00:56:04 -10.6 C 1.73 g/m*3 -10.6 C 0 km/h
6 03-12-2010 01:08:04 -10.4 C 1.76 g/m*3 -10.4 C 0 km/h
7 03-12-2010 01:20:04 -9.8 C 1.89 g/m*3 -9.8 C 0 km/h
8 03-12-2010 01:32:04 -9.7 C 1.9 g/m*3 -9.7 C 0 km/h
9 03-12-2010 01:44:04 -9.3 C 1.99 g/m*3 -9.3 C 0 km/h
10 03-12-2010 01:56:04 -9.1 C 2.02 g/m*3 -9.1 C 0 km/h
11 03-12-2010 02:08:04 -9.1 C 2.02 g/m*3 -9.1 C 0 km/h
12 03-12-2010 02:20:04 -9 C 2.03 g/m*3 -9 C 0 km/h
13 03-12-2010 02:32:05 -9.1 C 1.99 g/m*3 -9.1 C 0 km/h
14 03-12-2010 02:44:05 -9.1 C 1.99 g/m*3 -9.1 C 0 km/h
15 03-12-2010 02:56:05 -9.3 C 1.96 g/m*3 -9.3 C 0 km/h
16 03-12-2010 03:08:05 -9.2 C 1.98 g/m*3 -9.2 C 0 km/h
17 03-12-2010 03:20:05 -9 C 2.01 g/m*3 -9 C 0 km/h
18 03-12-2010 03:32:05 -8.7 C 2.05 g/m*3 -8.7 C 0 km/h
19 03-12-2010 03:44:05 -8.5 C 2.11 g/m*3 -8.5 C 0 km/h
20 03-12-2010 03:56:05 -8.5 C 2.08 g/m*3 -8.5 C 0 km/h
21 03-12-2010 04:08:05 -8.2 C 2.13 g/m*3 -8.2 C 0 km/h
22 03-12-2010 04:20:05 -8.1 C 2.14 g/m*3 -8.1 C 0 km/h
23 03-12-2010 04:32:05 -7.9 C 2.18 g/m*3 -7.9 C 0 km/h
24 03-12-2010 04:44:05 -8 C 2.16 g/m*3 -8 C 0 km/h
25 03-12-2010 04:56:05 -8.1 C 2.12 g/m*3 -8.1 C 0 km/h
Sensor: Nr:Datum:Temp:Abs-Feuchte:Windchill:Wind:
Aussen-T/F 26 03-12-2010 05:08:05 -8.6 C 2.04 g/m*3 -8.6 C 0 km/h
27 03-12-2010 05:20:05 -8.8 C 1.98 g/m*3 -8.8 C 0 km/h
28 03-12-2010 05:32:05 -8.6 C 2.04 g/m*3 -8.6 C 0 km/h
29 03-12-2010 05:44:05 -8.5 C 2.08 g/m*3 -8.5 C 0 km/h
30 03-12-2010 05:56:05 -8.9 C 2 g/m*3 -8.9 C 0 km/h
31 03-12-2010 06:08:05 -9.5 C 1.91 g/m*3 -9.5 C 0 km/h
32 03-12-2010 06:20:05 -9.8 C 1.84 g/m*3 -9.8 C 0 km/h
33 03-12-2010 06:32:06 -9.6 C 1.89 g/m*3 -9.6 C 0 km/h
34 03-12-2010 06:44:06 -9.4 C 1.92 g/m*3 -9.4 C 0 km/h
35 03-12-2010 06:56:06 -9.1 C 1.99 g/m*3 -9.1 C 0 km/h
36 03-12-2010 07:08:03 -8.7 C 2.08 g/m*3 -8.7 C 0 km/h
37 03-12-2010 07:20:04 -8.7 C 2.08 g/m*3 -8.7 C 0 km/h
38 03-12-2010 07:32:03 -8.9 C 2.02 g/m*3 -8.9 C 0 km/h
39 03-12-2010 07:44:03 -9 C 2.01 g/m*3 -9 C 0 km/h
40 03-12-2010 07:56:02 -9.3 C 1.96 g/m*3 -9.3 C 0 km/h
41 03-12-2010 08:08:02 -9.5 C 1.93 g/m*3 -9.5 C 0 km/h
42 03-12-2010 08:20:02 -9.9 C 1.85 g/m*3 -9.9 C 0 km/h
43 03-12-2010 08:32:03 -10.2 C 1.81 g/m*3 -10.2 C 0 km/h
44 03-12-2010 08:44:03 -10 C 1.84 g/m*3 -10 C 0 km/h
45 03-12-2010 08:56:02 -10 C 1.84 g/m*3 -10 C 0 km/h
46 03-12-2010 09:08:01 -10 C 1.84 g/m*3 -10 C 0 km/h
47 03-12-2010 09:20:02 -9.8 C 1.87 g/m*3 -9.8 C 0 km/h
48 03-12-2010 09:32:02 -10 C 1.81 g/m*3 -10 C 0 km/h
49 03-12-2010 09:44:02 -9.8 C 1.84 g/m*3 -9.8 C 0 km/h
50 03-12-2010 09:56:02 -9.4 C 1.87 g/m*3 -9.4 C 0 km/h
Sensor: Nr:Datum:Temp:Abs-Feuchte:Windchill:Wind:
Aussen-T/F 51 03-12-2010 10:08:03 -9.1 C 1.92 g/m*3 -9.1 C 0 km/h
52 03-12-2010 10:20:02 -8.6 C 1.96 g/m*3 -8.6 C 0 km/h
53 03-12-2010 10:32:02 -8.2 C 2.05 g/m*3 -8.2 C 0 km/h
54 03-12-2010 10:44:02 -7.5 C 2.16 g/m*3 -7.5 C 0 km/h
55 03-12-2010 10:56:01 -7.1 C 2.19 g/m*3 -7.1 C 0 km/h
56 03-12-2010 11:08:02 -6.6 C 2.24 g/m*3 -6.6 C 0 km/h
57 03-12-2010 11:20:01 -6.6 C 2.21 g/m*3 -6.6 C 0 km/h
58 03-12-2010 11:32:01 -6.4 C 2.21 g/m*3 -6.4 C 0 km/h
59 03-12-2010 11:44:01 -6.2 C 2.22 g/m*3 -6.2 C 0 km/h
60 03-12-2010 11:56:01 -5.8 C 2.25 g/m*3 -5.8 C 0 km/h
61 03-12-2010 12:08:01 -5.7 C 2.23 g/m*3 -5.7 C 0 km/h
62 03-12-2010 12:20:02 -5.4 C 2.25 g/m*3 -5.4 C 0 km/h
63 03-12-2010 12:32:01 -4.9 C 2.33 g/m*3 -4.9 C 0 km/h
64 03-12-2010 12:44:01 -4.8 C 2.31 g/m*3 -4.8 C 0 km/h
65 03-12-2010 12:56:02 -5 C 2.28 g/m*3 -5 C 0 km/h
66 03-12-2010 13:08:01 -4.9 C 2.3 g/m*3 -4.9 C 0 km/h
67 03-12-2010 13:20:02 -4.7 C 2.33 g/m*3 -4.7 C 0 km/h
68 03-12-2010 13:32:01 -4.8 C 2.31 g/m*3 -4.8 C 0 km/h
69 03-12-2010 13:44:01 -4.7 C 2.33 g/m*3 -4.7 C 0 km/h
70 03-12-2010 13:56:02 -4.6 C 2.35 g/m*3 -4.6 C 0 km/h
71 03-12-2010 14:08:02 -4.4 C 2.35 g/m*3 -4.4 C 0 km/h
72 03-12-2010 14:20:02 -4.3 C 2.4 g/m*3 -4.3 C 0 km/h
73 03-12-2010 14:32:02 -4.3 C 2.36 g/m*3 -4.3 C 0 km/h
74 03-12-2010 14:44:02 -4.2 C 2.38 g/m*3 -4.2 C 0 km/h
75 03-12-2010 14:56:02 -4.1 C 2.4 g/m*3 -4.1 C 0 km/h
Sensor: Nr:Datum:Temp:Abs-Feuchte:Windchill:Wind:
Aussen-T/F 76 03-12-2010 15:08:02 -4.2 C 2.42 g/m*3 -4.2 C 0 km/h
77 03-12-2010 15:20:01 -4.4 C 2.42 g/m*3 -4.4 C 0 km/h
78 03-12-2010 15:32:02 -4.7 C 2.4 g/m*3 -4.7 C 0 km/h
79 03-12-2010 15:44:02 -4.8 C 2.42 g/m*3 -4.8 C 0 km/h
80 03-12-2010 15:56:02 -5.3 C 2.37 g/m*3 -5.3 C 0 km/h
81 03-12-2010 16:08:02 -5.7 C 2.36 g/m*3 -5.7 C 0 km/h
82 03-12-2010 16:20:02 -6.1 C 2.36 g/m*3 -6.1 C 0 km/h
83 03-12-2010 16:32:02 -6.3 C 2.35 g/m*3 -6.3 C 0 km/h
84 03-12-2010 16:44:02 -6.3 C 2.39 g/m*3 -6.3 C 0 km/h
85 03-12-2010 16:56:02 -6.5 C 2.38 g/m*3 -6.5 C 0 km/h
86 03-12-2010 17:08:02 -6.8 C 2.33 g/m*3 -6.8 C 0 km/h
87 03-12-2010 17:20:02 -6.8 C 2.36 g/m*3 -6.8 C 0 km/h
88 03-12-2010 17:32:02 -7 C 2.33 g/m*3 -7 C 0 km/h
89 03-12-2010 17:44:02 -7 C 2.36 g/m*3 -7 C 0 km/h
90 03-12-2010 17:56:02 -7.3 C 2.3 g/m*3 -7.3 C 0 km/h
91 03-12-2010 18:08:02 -7.4 C 2.29 g/m*3 -7.4 C 0 km/h
92 03-12-2010 18:20:02 -7.3 C 2.3 g/m*3 -7.3 C 0 km/h
93 03-12-2010 18:32:02 -7 C 2.36 g/m*3 -7 C 0 km/h
94 03-12-2010 18:44:02 -6.8 C 2.42 g/m*3 -6.8 C 0 km/h
95 03-12-2010 18:56:02 -6.6 C 2.46 g/m*3 -6.6 C 0 km/h
96 03-12-2010 19:08:02 -6.1 C 2.58 g/m*3 -6.1 C 0 km/h
97 03-12-2010 19:20:02 -5.8 C 2.64 g/m*3 -5.8 C 0 km/h
98 03-12-2010 19:32:01 -5.7 C 2.65 g/m*3 -5.7 C 0 km/h
99 03-12-2010 19:44:01 -5.6 C 2.64 g/m*3 -5.6 C 0 km/h
100 03-12-2010 19:56:02 -5.5 C 2.66 g/m*3 -5.5 C 0 km/h
Sensor: Nr:Datum:Temp:Abs-Feuchte:Windchill:Wind:
Aussen-T/F 101 03-12-2010 20:08:01 -5.5 C 2.63 g/m*3 -5.5 C 0 km/h
102 03-12-2010 20:20:02 -5.4 C 2.65 g/m*3 -5.4 C 0 km/h
103 03-12-2010 20:32:02 -5.3 C 2.67 g/m*3 -5.3 C 0 km/h
104 03-12-2010 20:44:02 -5.3 C 2.63 g/m*3 -5.3 C 0 km/h
105 03-12-2010 20:56:02 -5.3 C 2.63 g/m*3 -5.3 C 0 km/h
106 03-12-2010 21:08:03 -5.3 C 2.63 g/m*3 -5.3 C 0 km/h
107 03-12-2010 21:20:02 -5.5 C 2.56 g/m*3 -5.5 C 0 km/h
108 03-12-2010 21:32:02 -6.1 C 2.45 g/m*3 -6.1 C 0 km/h
109 03-12-2010 21:44:02 -6.1 C 2.48 g/m*3 -6.1 C 0 km/h
110 03-12-2010 21:56:01 -5.6 C 2.61 g/m*3 -5.6 C 0 km/h
111 03-12-2010 22:08:02 -5.9 C 2.55 g/m*3 -5.9 C 0 km/h
112 03-12-2010 22:20:01 -6.5 C 2.41 g/m*3 -6.5 C 0 km/h
113 03-12-2010 22:32:02 -6.9 C 2.37 g/m*3 -6.9 C 0 km/h
114 03-12-2010 22:44:03 -7.2 C 2.32 g/m*3 -7.2 C 0 km/h
115 03-12-2010 22:56:02 -7.4 C 2.32 g/m*3 -7.4 C 0 km/h
116 03-12-2010 23:08:02 -8 C 2.22 g/m*3 -8 C 0 km/h
117 03-12-2010 23:20:01 -8 C 2.22 g/m*3 -8 C 0 km/h
118 03-12-2010 23:32:02 -8.2 C 2.18 g/m*3 -8.2 C 0 km/h
119 03-12-2010 23:44:02 -7.2 C 2.41 g/m*3 -7.2 C 0 km/h
120 03-12-2010 23:56:02 -8.2 C 2.21 g/m*3 -8.2 C 0 km/h

Legende:
   Min
   Max


Maximal/Minimal-Werte vom 03.12.2010 - 03.12.2010

Sensor Min Max Avg
Temp
(Aussen-T/F)
-10.7 °C
03-12-2010  00:44:04
-4.1 °C
03-12-2010  14:56:02
-7.39 °C
Abs-Feuchte
(Aussen-T/F)
1.72 g/m*3
03-12-2010  00:44:04
2.67 g/m*3
03-12-2010  20:32:02
2.18 g/m*3
Windchill
(Aussen-T/F)
-10.7 C
03-12-2010  00:44:04
-4.1 C
03-12-2010  14:56:02
-7.32 C

Die Daten stammen von einer Davis Vantage Pro 2 Wetter-Station und werden unter Linux mit der Software wview2wettercgi und aufbereitet. Alle Angaben erfolgen ohne Gewähr für ihre Vollständigkeit oder Richtigkeit.
Kontakt: Rainer Krienke krienke@uni-koblenz.de . Meine Webseiten an der Uni Koblenz oder privat.
Version: $Revision: 0.78 $